createdAt,value
2018-05-03T00:00:56.520Z,6.20
2018-05-03T00:03:59.895Z,6.20
2018-05-03T00:07:04.011Z,5.93
2018-05-03T00:10:08.114Z,5.93
2018-05-03T00:13:12.227Z,5.83
2018-05-03T00:16:16.357Z,5.80
2018-05-03T00:19:19.700Z,6.97
2018-05-03T00:22:23.054Z,6.07
2018-05-03T00:25:26.418Z,6.57
2018-05-03T00:28:29.760Z,6.00
2018-05-03T00:31:33.111Z,5.87
2018-05-03T00:34:36.463Z,6.37
2018-05-03T00:37:39.803Z,5.83
2018-05-03T00:40:43.133Z,5.70
2018-05-03T00:43:47.214Z,6.20
2018-05-03T00:46:50.525Z,8.53
2018-05-03T00:49:53.847Z,7.23
2018-05-03T00:52:57.149Z,6.33
2018-05-03T00:56:00.452Z,6.10
2018-05-03T00:59:03.787Z,6.13
2018-05-03T01:02:07.096Z,6.37
2018-05-03T01:05:10.425Z,6.80
2018-05-03T01:08:14.493Z,6.97
2018-05-03T01:11:17.821Z,7.63
2018-05-03T01:14:21.893Z,7.03
2018-05-03T01:17:25.212Z,7.33
2018-05-03T01:20:28.519Z,7.20
2018-05-03T01:23:31.836Z,6.63
2018-05-03T01:26:35.909Z,7.20
2018-05-03T01:29:39.222Z,7.20
2018-05-03T01:32:42.534Z,6.67
2018-05-03T01:36:04.373Z,7.60
2018-05-03T01:39:08.458Z,7.27
2018-05-03T01:42:11.785Z,7.50
2018-05-03T01:45:15.853Z,6.97
2018-05-03T01:48:19.161Z,7.03
2018-05-03T01:51:22.473Z,7.13
2018-05-03T01:54:25.777Z,7.90
2018-05-03T01:57:29.091Z,7.53
2018-05-03T02:00:32.429Z,8.00
2018-05-03T02:03:35.742Z,7.77
2018-05-03T02:06:39.086Z,8.00
2018-05-03T02:09:42.384Z,8.07
2018-05-03T02:12:45.712Z,8.13
2018-05-03T02:15:49.014Z,8.03
2018-05-03T02:18:52.340Z,7.93
2018-05-03T02:21:55.642Z,8.37
2018-05-03T02:24:59.729Z,7.70
2018-05-03T02:28:03.062Z,9.37
2018-05-03T02:31:06.377Z,8.40
2018-05-03T02:34:09.710Z,9.30
2018-05-03T02:37:13.017Z,9.83
2018-05-03T02:40:16.354Z,8.80
2018-05-03T02:43:20.421Z,8.63
2018-05-03T02:46:23.749Z,9.33
2018-05-03T02:49:27.048Z,9.63
2018-05-03T02:52:30.365Z,9.83
2018-05-03T02:55:33.693Z,9.70
2018-05-03T02:58:54.649Z,10.07
2018-05-03T03:02:03.440Z,9.53
2018-05-03T03:05:30.193Z,10.53
2018-05-03T03:13:28.219Z,11.13
2018-05-03T03:16:54.873Z,11.07
2018-05-03T03:24:20.656Z,11.30
2018-05-03T03:27:47.387Z,12.83
2018-05-03T03:31:14.153Z,13.90
2018-05-03T03:34:32.364Z,14.80
2018-05-03T03:37:54.195Z,14.80
2018-05-03T03:41:15.989Z,15.73
2018-05-03T03:44:36.966Z,18.50
2018-05-03T03:47:40.277Z,20.33
2018-05-03T03:50:43.588Z,21.70
2018-05-03T03:53:46.906Z,24.17
2018-05-03T03:56:50.210Z,28.43
2018-05-03T03:59:53.542Z,27.23
2018-05-03T04:02:56.836Z,31.97
2018-05-03T04:06:00.153Z,32.33
2018-05-03T04:09:03.459Z,32.47
2018-05-03T04:12:06.773Z,31.10
2018-05-03T04:15:10.085Z,30.83
2018-05-03T04:18:31.115Z,31.67
2018-05-03T04:21:52.725Z,26.67
2018-05-03T04:25:13.766Z,11.47
2018-05-03T04:28:17.075Z,6.50
2018-05-03T04:31:20.390Z,4.87
2018-05-03T04:34:23.694Z,4.47
2018-05-03T04:37:27.033Z,4.17
2018-05-03T04:40:31.113Z,4.20
2018-05-03T04:43:34.428Z,4.13
2018-05-03T04:46:37.725Z,3.80
2018-05-03T04:49:41.050Z,3.53
2018-05-03T04:52:45.121Z,3.73
2018-05-03T04:55:48.446Z,4.57
2018-05-03T04:58:52.534Z,4.10
2018-05-03T05:01:55.836Z,4.17
2018-05-03T05:04:59.149Z,4.50
2018-05-03T05:08:02.450Z,4.47
2018-05-03T05:11:06.538Z,3.90
2018-05-03T05:14:09.845Z,4.70
2018-05-03T05:17:13.173Z,3.83
2018-05-03T05:20:16.481Z,3.93
2018-05-03T05:23:19.807Z,3.07
2018-05-03T05:26:23.114Z,2.50
2018-05-03T05:29:26.420Z,2.30
2018-05-03T05:32:29.721Z,3.63
2018-05-03T05:35:33.032Z,3.23
2018-05-03T05:38:36.390Z,2.80
2018-05-03T05:41:39.681Z,2.97
2018-05-03T05:44:42.977Z,3.00
2018-05-03T05:47:46.317Z,2.87
2018-05-03T05:50:50.392Z,2.10
2018-05-03T05:53:53.696Z,2.43
2018-05-03T05:56:56.993Z,2.23
2018-05-03T06:00:00.301Z,2.13
2018-05-03T06:03:03.606Z,2.13
2018-05-03T06:06:06.926Z,2.37
2018-05-03T06:09:10.997Z,2.80
2018-05-03T06:12:14.364Z,2.60
2018-05-03T06:15:18.405Z,2.07
2018-05-03T06:18:21.729Z,3.00
2018-05-03T06:21:25.025Z,2.37
2018-05-03T06:24:28.348Z,2.40
2018-05-03T06:27:31.645Z,2.53
2018-05-03T06:30:34.974Z,2.27
2018-05-03T06:33:38.270Z,2.27
2018-05-03T06:36:41.582Z,2.80
2018-05-03T06:39:44.877Z,2.03
2018-05-03T06:42:48.196Z,2.73
2018-05-03T06:45:51.489Z,2.00
2018-05-03T06:48:54.804Z,2.17
2018-05-03T06:51:58.860Z,2.20
2018-05-03T06:55:02.165Z,2.83
2018-05-03T06:58:05.494Z,2.67
2018-05-03T07:01:08.787Z,2.00
2018-05-03T07:04:12.223Z,2.20
2018-05-03T07:07:15.425Z,2.10
2018-05-03T07:10:18.736Z,2.23
2018-05-03T07:13:22.036Z,2.60
2018-05-03T07:16:25.493Z,2.57
2018-05-03T07:19:28.669Z,3.10
2018-05-03T07:22:31.989Z,2.40
2018-05-03T07:25:36.062Z,2.60
2018-05-03T07:28:39.373Z,2.87
2018-05-03T07:31:42.689Z,2.57
2018-05-03T07:34:46.823Z,2.13
2018-05-03T07:37:50.096Z,2.37
2018-05-03T07:40:53.510Z,2.30
2018-05-03T07:43:56.741Z,2.33
2018-05-03T07:47:00.060Z,2.00
2018-05-03T07:50:03.361Z,2.00
2018-05-03T07:53:06.665Z,2.70
2018-05-03T07:56:09.970Z,2.77
2018-05-03T07:59:13.300Z,2.43
2018-05-03T08:02:16.605Z,2.80
2018-05-03T08:05:19.945Z,2.73
2018-05-03T08:08:23.249Z,1.97
2018-05-03T08:11:26.585Z,2.37
2018-05-03T08:14:29.884Z,2.30
2018-05-03T08:17:33.201Z,1.70
2018-05-03T08:20:36.497Z,1.87
2018-05-03T08:23:39.820Z,2.03
2018-05-03T08:26:43.135Z,1.80
2018-05-03T08:29:46.464Z,1.97
2018-05-03T08:32:49.760Z,1.47
2018-05-03T08:35:53.085Z,2.00
2018-05-03T08:38:56.385Z,2.23
2018-05-03T08:41:59.708Z,1.90
2018-05-03T08:45:03.017Z,2.50
2018-05-03T08:48:06.353Z,1.97
2018-05-03T08:51:09.661Z,2.70
2018-05-03T08:54:12.989Z,1.77
2018-05-03T08:57:16.285Z,1.77
2018-05-03T09:00:19.609Z,2.63
2018-05-03T09:03:23.747Z,2.17
2018-05-03T09:06:27.018Z,2.47
2018-05-03T09:09:31.084Z,2.10
2018-05-03T09:12:34.420Z,2.30
2018-05-03T09:15:37.733Z,2.30
2018-05-03T09:18:41.834Z,2.60
2018-05-03T09:21:45.160Z,2.43
2018-05-03T09:24:48.485Z,1.63
2018-05-03T09:27:51.793Z,1.90
2018-05-03T09:30:55.113Z,1.40
2018-05-03T09:33:58.421Z,2.10
2018-05-03T09:37:01.761Z,2.13
2018-05-03T09:40:05.076Z,1.80
2018-05-03T09:43:08.377Z,1.47
2018-05-03T09:46:11.673Z,1.57
2018-05-03T09:49:14.996Z,1.67
2018-05-03T09:52:18.301Z,1.67
2018-05-03T09:55:22.384Z,1.50
2018-05-03T09:58:25.686Z,1.43
2018-05-03T10:01:28.998Z,1.50
2018-05-03T10:04:32.308Z,1.60
2018-05-03T10:07:36.410Z,1.53
2018-05-03T10:10:39.718Z,1.50
2018-05-03T10:13:43.813Z,1.17
2018-05-03T10:16:47.146Z,1.83
2018-05-03T10:19:50.449Z,1.20
2018-05-03T10:22:53.761Z,1.50
2018-05-03T10:25:57.074Z,1.33
2018-05-03T10:29:00.514Z,0.97
2018-05-03T10:32:04.592Z,1.30
2018-05-03T10:35:07.904Z,1.10
2018-05-03T10:38:11.225Z,1.30
2018-05-03T10:41:14.560Z,1.07
2018-05-03T10:44:17.876Z,0.90
2018-05-03T10:47:21.197Z,0.90
2018-05-03T10:50:24.506Z,1.33
2018-05-03T10:53:27.837Z,1.23
2018-05-03T10:56:31.160Z,1.27
2018-05-03T10:59:34.481Z,0.90
2018-05-03T11:02:37.789Z,1.03
2018-05-03T11:05:41.113Z,0.90
2018-05-03T11:08:44.417Z,1.30
2018-05-03T11:11:47.738Z,1.13
2018-05-03T11:14:51.037Z,1.00
2018-05-03T11:17:54.353Z,1.17
2018-05-03T11:20:57.657Z,1.40
2018-05-03T11:24:00.977Z,0.90
2018-05-03T11:27:05.046Z,1.53
2018-05-03T11:30:08.364Z,1.30
2018-05-03T11:33:11.662Z,1.27
2018-05-03T11:36:14.984Z,1.00
2018-05-03T11:39:19.050Z,1.70
2018-05-03T11:42:22.359Z,1.10
2018-05-03T11:45:25.669Z,1.50
2018-05-03T11:48:28.994Z,1.37
2018-05-03T11:51:33.059Z,1.33
2018-05-03T11:54:36.394Z,1.33
2018-05-03T11:57:40.460Z,1.20
2018-05-03T12:00:43.777Z,1.50
2018-05-03T12:03:47.080Z,1.10
2018-05-03T12:06:50.400Z,1.00
2018-05-03T12:09:53.714Z,1.40
2018-05-03T12:12:57.037Z,1.57
2018-05-03T12:16:00.336Z,1.43
2018-05-03T12:19:03.649Z,1.00
2018-05-03T12:22:06.953Z,1.53
2018-05-03T12:25:10.281Z,1.20
2018-05-03T12:28:14.344Z,1.30
2018-05-03T12:31:17.666Z,1.70
2018-05-03T12:34:20.957Z,1.57
2018-05-03T12:37:24.272Z,1.10
2018-05-03T12:40:28.342Z,1.50
2018-05-03T12:43:31.659Z,0.97
2018-05-03T12:46:34.967Z,1.30
2018-05-03T12:49:38.281Z,1.27
2018-05-03T12:52:42.353Z,1.30
2018-05-03T12:55:45.668Z,1.83
2018-05-03T12:58:48.968Z,1.27
2018-05-03T13:01:52.286Z,1.50
2018-05-03T13:04:56.361Z,1.17
2018-05-03T13:07:59.685Z,1.20
2018-05-03T13:11:02.980Z,1.17
2018-05-03T13:14:06.329Z,1.17
2018-05-03T13:17:09.633Z,1.37
2018-05-03T13:20:12.952Z,0.70
2018-05-03T13:23:16.257Z,1.20
2018-05-03T13:26:19.575Z,1.40
2018-05-03T13:29:23.637Z,1.00
2018-05-03T13:32:26.969Z,0.70
2018-05-03T13:35:30.272Z,1.13
2018-05-03T13:38:34.364Z,1.03
2018-05-03T13:41:37.657Z,0.93
2018-05-03T13:44:40.973Z,0.90
2018-05-03T13:47:44.349Z,1.10
2018-05-03T13:50:48.463Z,0.87
2018-05-03T13:53:51.766Z,1.13
2018-05-03T13:56:55.091Z,0.73
2018-05-03T13:59:59.160Z,1.00
2018-05-03T14:03:02.484Z,0.87
2018-05-03T14:06:05.781Z,1.13
2018-05-03T14:09:09.102Z,0.87
2018-05-03T14:12:13.169Z,1.03
2018-05-03T14:15:16.500Z,1.00
2018-05-03T14:18:19.808Z,1.03
2018-05-03T14:21:23.890Z,1.20
2018-05-03T14:24:27.193Z,1.17
2018-05-03T14:27:30.524Z,2.03
2018-05-03T14:30:34.607Z,1.20
2018-05-03T14:33:37.912Z,1.30
2018-05-03T14:36:41.240Z,1.10
2018-05-03T14:39:44.549Z,0.80
2018-05-03T14:42:47.870Z,1.47
2018-05-03T14:45:51.169Z,0.90
2018-05-03T14:48:54.492Z,1.07
2018-05-03T14:51:57.789Z,0.73
2018-05-03T14:55:01.124Z,1.17
2018-05-03T14:58:04.426Z,1.07
2018-05-03T15:01:07.764Z,0.90
2018-05-03T15:04:11.082Z,1.00
2018-05-03T15:07:15.164Z,0.97
2018-05-03T15:10:18.478Z,1.03
2018-05-03T15:13:21.951Z,0.83
2018-05-03T15:16:25.263Z,1.07
2018-05-03T15:19:28.581Z,0.90
2018-05-03T15:22:31.880Z,0.90
2018-05-03T15:25:35.202Z,0.80
2018-05-03T15:28:38.530Z,1.40
2018-05-03T15:31:41.832Z,1.03
2018-05-03T15:34:45.180Z,0.87
2018-05-03T15:37:48.544Z,1.37
2018-05-03T15:40:51.837Z,1.20
2018-05-03T15:43:55.133Z,1.20
2018-05-03T15:46:58.453Z,1.43
2018-05-03T15:50:01.799Z,1.03
2018-05-03T15:53:05.090Z,1.00
2018-05-03T15:56:08.420Z,0.97
2018-05-03T15:59:11.725Z,1.20
2018-05-03T16:02:15.058Z,1.40
2018-05-03T16:05:19.122Z,2.17
2018-05-03T16:08:22.460Z,1.53
2018-05-03T16:11:26.521Z,1.30
2018-05-03T16:14:29.844Z,5.50
2018-05-03T16:17:33.149Z,1.67
2018-05-03T16:20:36.503Z,1.30
2018-05-03T16:23:39.797Z,1.93
2018-05-03T16:26:43.110Z,1.63
2018-05-03T16:29:46.425Z,2.10
2018-05-03T16:32:49.734Z,1.53
2018-05-03T16:35:53.045Z,1.53
2018-05-03T16:38:57.137Z,1.33
2018-05-03T16:42:00.438Z,2.07
2018-05-03T16:45:03.760Z,1.40
2018-05-03T16:48:07.912Z,1.30
2018-05-03T16:51:11.165Z,1.37
2018-05-03T16:54:15.229Z,1.10
2018-05-03T16:57:18.540Z,1.37
2018-05-03T17:00:21.841Z,1.30
2018-05-03T17:03:25.165Z,1.37
2018-05-03T17:06:29.233Z,1.70
2018-05-03T17:09:32.556Z,2.13
2018-05-03T17:12:35.913Z,1.40
2018-05-03T17:15:39.222Z,1.30
2018-05-03T17:18:42.541Z,1.50
2018-05-03T17:21:45.861Z,2.37
2018-05-03T17:24:49.925Z,1.60
2018-05-03T17:27:53.295Z,1.87
2018-05-03T17:30:56.562Z,4.50
2018-05-03T17:33:59.881Z,2.60
2018-05-03T17:37:03.180Z,2.60
2018-05-03T17:40:06.502Z,1.50
2018-05-03T17:43:09.803Z,1.60
2018-05-03T17:46:13.131Z,2.30
2018-05-03T17:49:22.930Z,2.60
2018-05-03T17:52:26.315Z,2.00
2018-05-03T17:55:29.703Z,2.07
2018-05-03T17:58:33.965Z,2.17
2018-05-03T18:01:37.302Z,2.83
2018-05-03T18:04:41.424Z,2.33
2018-05-03T18:07:44.782Z,2.40
2018-05-03T18:10:48.178Z,2.40
2018-05-03T18:13:51.494Z,1.60
2018-05-03T18:16:54.794Z,2.50
2018-05-03T18:19:58.109Z,3.53
2018-05-03T18:23:02.179Z,2.40
2018-05-03T18:26:05.492Z,3.13
2018-05-03T18:29:08.821Z,2.90
2018-05-03T18:32:12.909Z,2.03
2018-05-03T18:35:16.237Z,1.83
2018-05-03T18:38:20.398Z,2.10
2018-05-03T18:41:23.699Z,2.07
2018-05-03T18:44:27.023Z,2.10
2018-05-03T18:47:30.320Z,1.83
2018-05-03T18:50:33.646Z,2.00
2018-05-03T18:53:36.968Z,2.60
2018-05-03T18:56:40.290Z,2.57
2018-05-03T18:59:43.597Z,2.27
2018-05-03T19:02:46.937Z,2.10
2018-05-03T19:05:50.241Z,2.60
2018-05-03T19:08:53.561Z,2.27
2018-05-03T19:11:56.933Z,2.70
2018-05-03T19:15:00.211Z,2.63
2018-05-03T19:18:04.345Z,2.10
2018-05-03T19:21:07.664Z,2.37
2018-05-03T19:24:10.972Z,1.70
2018-05-03T19:27:14.288Z,1.97
2018-05-03T19:30:17.596Z,2.27
2018-05-03T19:33:21.676Z,3.93
2018-05-03T19:36:24.985Z,6.33
2018-05-03T19:39:28.302Z,4.40
2018-05-03T19:42:31.600Z,3.07
2018-05-03T19:45:34.908Z,4.00
2018-05-03T19:48:38.992Z,3.13
2018-05-03T19:51:42.289Z,3.47
2018-05-03T19:54:45.612Z,2.90
2018-05-03T19:57:49.675Z,3.50
2018-05-03T20:00:52.993Z,2.90
2018-05-03T20:03:56.292Z,2.57
2018-05-03T20:06:59.721Z,2.37
2018-05-03T20:10:03.787Z,2.30
2018-05-03T20:13:07.105Z,3.03
2018-05-03T20:16:10.420Z,3.93
2018-05-03T20:19:13.753Z,3.40
2018-05-03T20:22:17.057Z,2.67
2018-05-03T20:25:20.383Z,2.80
2018-05-03T20:28:23.688Z,3.07
2018-05-03T20:31:27.022Z,4.53
2018-05-03T20:34:30.325Z,3.07
2018-05-03T20:37:33.644Z,4.07
2018-05-03T20:40:36.945Z,2.60
2018-05-03T20:43:40.268Z,3.10
2018-05-03T20:46:43.575Z,2.90
2018-05-03T20:49:46.905Z,3.00
2018-05-03T20:52:50.209Z,3.80
2018-05-03T20:55:53.529Z,3.20
2018-05-03T20:58:56.836Z,27.97
2018-05-03T21:02:00.157Z,27.40
2018-05-03T21:05:03.460Z,45.10
2018-05-03T21:08:07.561Z,35.33
2018-05-03T21:11:10.857Z,11.30
2018-05-03T21:14:14.181Z,6.53
2018-05-03T21:17:18.244Z,4.30
2018-05-03T21:20:21.569Z,3.00
2018-05-03T21:23:24.874Z,3.27
2018-05-03T21:26:28.274Z,3.47
2018-05-03T21:29:31.517Z,3.37
2018-05-03T21:32:34.837Z,3.87
2018-05-03T21:35:38.129Z,6.87
2018-05-03T21:38:41.449Z,5.87
2018-05-03T21:41:44.770Z,5.20
2018-05-03T21:44:48.853Z,4.40
2018-05-03T21:47:52.161Z,4.50
2018-05-03T21:50:55.486Z,4.27
2018-05-03T21:53:58.784Z,5.27
2018-05-03T21:57:02.121Z,24.20
2018-05-03T22:00:06.190Z,22.70
2018-05-03T22:03:10.281Z,13.37
2018-05-03T22:06:13.583Z,14.70
2018-05-03T22:09:16.920Z,11.03
2018-05-03T22:12:20.219Z,6.63
2018-05-03T22:15:23.538Z,6.03
2018-05-03T22:18:26.845Z,5.70
2018-05-03T22:21:30.187Z,4.80
2018-05-03T22:24:34.252Z,4.37
2018-05-03T22:27:37.573Z,5.40
2018-05-03T22:30:40.869Z,19.47
2018-05-03T22:33:44.197Z,8.47
2018-05-03T22:36:47.493Z,6.00
2018-05-03T22:39:50.801Z,5.67
2018-05-03T22:42:54.117Z,7.47
2018-05-03T22:45:57.422Z,14.03
2018-05-03T22:49:00.759Z,11.63
2018-05-03T22:52:04.829Z,27.73
2018-05-03T22:55:08.136Z,12.40
2018-05-03T22:58:12.037Z,14.73
2018-05-03T23:01:15.368Z,13.30
2018-05-03T23:04:18.673Z,11.00
2018-05-03T23:07:22.760Z,7.60
2018-05-03T23:10:26.061Z,4.50
2018-05-03T23:13:29.389Z,3.63
2018-05-03T23:16:33.460Z,3.67
2018-05-03T23:19:36.769Z,4.47
2018-05-03T23:22:40.090Z,3.30
2018-05-03T23:25:44.154Z,3.10
2018-05-03T23:28:47.489Z,3.63
2018-05-03T23:31:50.797Z,3.70
2018-05-03T23:34:54.108Z,3.20
2018-05-03T23:37:57.410Z,4.40
2018-05-03T23:41:00.729Z,3.47
2018-05-03T23:44:04.037Z,8.60
2018-05-03T23:47:07.384Z,26.77
2018-05-03T23:50:11.457Z,16.43
2018-05-03T23:53:14.772Z,11.33
2018-05-03T23:56:18.069Z,7.93
2018-05-03T23:59:21.481Z,5.93
